createdAt,value
2018-03-16T00:00:59.944Z,23.63
2018-03-16T00:03:27.415Z,21.17
2018-03-16T00:05:54.878Z,20.73
2018-03-16T00:08:22.360Z,19.80
2018-03-16T00:10:50.582Z,19.57
2018-03-16T00:13:18.039Z,18.33
2018-03-16T00:15:45.510Z,19.50
2018-03-16T00:18:12.985Z,17.37
2018-03-16T00:20:40.447Z,17.10
2018-03-16T00:23:08.711Z,17.83
2018-03-16T00:25:36.231Z,17.77
2018-03-16T00:28:04.410Z,18.17
2018-03-16T00:30:32.106Z,17.43
2018-03-16T00:32:59.563Z,17.20
2018-03-16T00:35:27.789Z,17.40
2018-03-16T00:37:55.286Z,17.00
2018-03-16T00:40:22.755Z,19.33
2018-03-16T00:42:51.003Z,17.20
2018-03-16T00:45:18.481Z,18.40
2018-03-16T00:47:46.712Z,16.93
2018-03-16T00:50:14.193Z,17.70
2018-03-16T00:52:41.667Z,18.30
2018-03-16T00:55:09.131Z,17.30
2018-03-16T00:57:37.375Z,17.33
2018-03-16T01:00:04.864Z,17.90
2018-03-16T01:02:33.098Z,18.00
2018-03-16T01:05:00.566Z,19.57
2018-03-16T01:07:28.051Z,19.53
2018-03-16T01:09:56.286Z,19.50
2018-03-16T01:12:23.746Z,18.70
2018-03-16T01:14:51.241Z,20.23
2018-03-16T01:17:19.466Z,19.10
2018-03-16T01:19:46.939Z,20.20
2018-03-16T01:22:14.419Z,18.97
2018-03-16T01:24:41.879Z,19.13
2018-03-16T01:27:09.342Z,20.40
2018-03-16T01:29:37.585Z,18.77
2018-03-16T01:32:05.054Z,20.63
2018-03-16T01:34:34.046Z,18.50
2018-03-16T01:37:03.026Z,20.77
2018-03-16T01:39:30.792Z,19.77
2018-03-16T01:41:58.250Z,19.33
2018-03-16T01:44:25.718Z,19.43
2018-03-16T01:46:53.372Z,19.70
2018-03-16T01:49:21.603Z,20.10
2018-03-16T01:51:49.050Z,21.30
2018-03-16T01:54:16.775Z,18.60
2018-03-16T01:56:45.046Z,19.20
2018-03-16T01:59:12.505Z,18.80
2018-03-16T02:01:40.070Z,18.90
2018-03-16T02:04:08.291Z,18.20
2018-03-16T02:06:35.761Z,18.67
2018-03-16T02:09:03.255Z,20.03
2018-03-16T02:11:33.278Z,19.97
2018-03-16T02:14:01.510Z,17.67
2018-03-16T02:16:29.041Z,19.40
2018-03-16T02:18:56.511Z,20.17
2018-03-16T02:21:23.994Z,19.37
2018-03-16T02:23:54.249Z,19.83
2018-03-16T02:26:22.464Z,19.70
2018-03-16T02:28:49.954Z,20.20
2018-03-16T02:31:17.418Z,19.57
2018-03-16T02:33:44.897Z,18.53
2018-03-16T02:36:13.151Z,18.40
2018-03-16T02:38:40.618Z,20.37
2018-03-16T02:41:08.858Z,20.63
2018-03-16T02:43:36.438Z,19.60
2018-03-16T02:46:03.898Z,21.10
2018-03-16T02:48:31.354Z,21.97
2018-03-16T02:51:00.348Z,20.50
2018-03-16T02:53:27.811Z,22.90
2018-03-16T02:55:55.271Z,21.53
2018-03-16T02:58:23.526Z,22.87
2018-03-16T03:00:51.004Z,20.57
2018-03-16T03:03:18.463Z,20.90
2018-03-16T03:05:46.711Z,22.17
2018-03-16T03:08:14.181Z,22.13
2018-03-16T03:10:41.648Z,24.20
2018-03-16T03:13:09.891Z,22.97
2018-03-16T03:15:37.346Z,21.97
2018-03-16T03:18:04.852Z,20.70
2018-03-16T03:20:33.069Z,20.83
2018-03-16T03:23:00.530Z,21.00
2018-03-16T03:25:28.014Z,20.33
2018-03-16T03:27:56.249Z,20.50
2018-03-16T03:30:23.706Z,21.13
2018-03-16T03:32:51.408Z,20.70
2018-03-16T03:35:19.635Z,19.10
2018-03-16T03:37:47.106Z,20.10
2018-03-16T03:40:14.586Z,20.30
2018-03-16T03:42:42.047Z,21.13
2018-03-16T03:45:09.516Z,20.83
2018-03-16T03:47:36.986Z,21.40
2018-03-16T03:50:05.239Z,21.80
2018-03-16T03:52:33.477Z,22.37
2018-03-16T03:55:00.970Z,23.00
2018-03-16T03:57:28.426Z,23.23
2018-03-16T03:59:55.994Z,22.80
2018-03-16T04:02:24.239Z,23.97
2018-03-16T04:04:51.702Z,23.07
2018-03-16T04:07:19.266Z,22.50
2018-03-16T04:09:46.754Z,25.50
2018-03-16T04:12:14.982Z,24.20
2018-03-16T04:14:42.453Z,23.10
2018-03-16T04:17:09.931Z,24.03
2018-03-16T04:19:38.154Z,25.13
2018-03-16T04:22:05.645Z,24.10
2018-03-16T04:24:33.103Z,25.53
2018-03-16T04:27:00.566Z,24.10
2018-03-16T04:29:28.052Z,24.17
2018-03-16T04:31:55.524Z,24.20
2018-03-16T04:34:22.982Z,24.30
2018-03-16T04:36:50.467Z,23.33
2018-03-16T04:39:17.915Z,26.87
2018-03-16T04:41:45.383Z,25.27
2018-03-16T04:44:12.875Z,25.50
2018-03-16T04:46:41.096Z,24.87
2018-03-16T04:49:08.577Z,25.10
2018-03-16T04:51:36.036Z,23.20
2018-03-16T04:54:03.498Z,23.83
2018-03-16T04:56:31.154Z,22.30
2018-03-16T04:58:58.634Z,22.53
2018-03-16T05:01:26.951Z,23.20
2018-03-16T05:03:54.422Z,23.33
2018-03-16T05:06:21.902Z,24.97
2018-03-16T05:08:50.191Z,23.83
2018-03-16T05:11:18.450Z,23.50
2018-03-16T05:13:45.908Z,24.60
2018-03-16T05:16:13.391Z,24.50
2018-03-16T05:18:41.738Z,24.87
2018-03-16T05:21:09.238Z,25.83
2018-03-16T05:23:37.520Z,24.40
2018-03-16T05:26:05.257Z,25.23
2018-03-16T05:28:33.476Z,27.10
2018-03-16T05:31:00.938Z,24.27
2018-03-16T05:33:28.423Z,25.13
2018-03-16T05:35:55.894Z,25.93
2018-03-16T05:38:24.120Z,25.97
2018-03-16T05:40:51.601Z,25.40
2018-03-16T05:43:20.227Z,24.50
2018-03-16T05:45:48.474Z,25.13
2018-03-16T05:48:17.443Z,24.60
2018-03-16T05:50:44.908Z,24.03
2018-03-16T05:53:12.398Z,26.17
2018-03-16T05:55:40.631Z,22.27
2018-03-16T05:58:08.095Z,23.57
2018-03-16T06:00:35.570Z,23.97
2018-03-16T06:03:03.030Z,24.67
2018-03-16T06:05:32.001Z,23.90
2018-03-16T06:07:59.579Z,22.70
2018-03-16T06:10:27.036Z,23.60
2018-03-16T06:12:54.499Z,23.97
2018-03-16T06:15:22.748Z,23.47
2018-03-16T06:17:50.215Z,25.10
2018-03-16T06:20:17.686Z,22.70
2018-03-16T06:22:45.931Z,23.37
2018-03-16T06:25:13.388Z,24.27
2018-03-16T06:27:40.847Z,25.50
2018-03-16T06:30:08.523Z,23.33
2018-03-16T06:32:35.982Z,25.37
2018-03-16T06:35:04.958Z,24.63
2018-03-16T06:37:32.481Z,24.13
2018-03-16T06:39:59.935Z,23.63
2018-03-16T06:42:27.394Z,26.00
2018-03-16T06:44:55.218Z,23.73
2018-03-16T06:47:23.341Z,26.10
2018-03-16T06:49:50.831Z,25.73
2018-03-16T06:52:18.345Z,25.33
2018-03-16T06:54:45.826Z,25.97
2018-03-16T06:57:13.298Z,26.03
2018-03-16T06:59:40.773Z,26.57
2018-03-16T07:02:08.243Z,25.00
2018-03-16T07:04:36.491Z,24.07
2018-03-16T07:07:03.954Z,24.53
2018-03-16T07:09:31.847Z,24.27
2018-03-16T07:11:59.326Z,24.37
2018-03-16T07:14:26.792Z,22.87
2018-03-16T07:16:54.260Z,23.20
2018-03-16T07:19:21.740Z,24.40
2018-03-16T07:21:49.959Z,24.67
2018-03-16T07:24:17.434Z,24.77
2018-03-16T07:26:44.911Z,27.13
2018-03-16T07:29:12.374Z,27.30
2018-03-16T07:31:40.559Z,26.97
2018-03-16T07:34:08.044Z,27.73
2018-03-16T07:36:37.494Z,28.37
2018-03-16T07:39:07.442Z,30.33
2018-03-16T07:41:34.903Z,30.57
2018-03-16T07:44:04.450Z,29.73
2018-03-16T07:46:33.698Z,28.00
2018-03-16T07:49:01.173Z,32.10
2018-03-16T07:51:30.018Z,30.47
2018-03-16T07:53:57.486Z,29.70
2018-03-16T07:56:26.963Z,30.07
2018-03-16T07:58:54.415Z,28.33
2018-03-16T08:01:23.092Z,28.70
2018-03-16T08:03:50.554Z,29.23
2018-03-16T08:06:19.586Z,29.17
2018-03-16T08:08:48.625Z,28.93
2018-03-16T08:11:16.046Z,30.03
2018-03-16T08:13:43.511Z,29.97
2018-03-16T08:16:11.767Z,28.20
2018-03-16T08:18:39.219Z,30.37
2018-03-16T08:21:06.671Z,29.63
2018-03-16T08:23:34.164Z,31.50
2018-03-16T08:26:02.386Z,31.07
2018-03-16T08:28:29.857Z,30.87
2018-03-16T08:30:57.341Z,30.93
2018-03-16T08:33:25.574Z,31.47
2018-03-16T08:35:53.108Z,32.37
2018-03-16T08:38:20.615Z,34.40
2018-03-16T08:40:48.092Z,32.90
2018-03-16T08:43:15.685Z,32.87
2018-03-16T08:45:43.139Z,31.07
2018-03-16T08:48:10.602Z,33.07
2018-03-16T08:50:38.094Z,34.20
2018-03-16T08:53:05.564Z,35.80
2018-03-16T08:55:33.830Z,36.43
2018-03-16T08:58:01.292Z,35.77
2018-03-16T09:00:29.518Z,38.60
2018-03-16T09:02:57.022Z,38.47
2018-03-16T09:05:24.491Z,39.70
2018-03-16T09:07:52.721Z,42.40
2018-03-16T09:10:20.210Z,40.47
2018-03-16T09:12:47.711Z,39.67
2018-03-16T09:15:15.282Z,41.70
2018-03-16T09:17:42.784Z,42.20
2018-03-16T09:20:10.246Z,43.30
2018-03-16T09:22:37.714Z,45.63
2018-03-16T09:25:05.954Z,45.87
2018-03-16T09:27:33.410Z,45.60
2018-03-16T09:30:00.888Z,44.10
2018-03-16T09:32:28.370Z,46.40
2018-03-16T09:34:56.606Z,47.17
2018-03-16T09:37:24.080Z,48.90
2018-03-16T09:39:51.567Z,49.20
2018-03-16T09:42:19.032Z,48.70
2018-03-16T09:44:46.502Z,49.10
2018-03-16T09:47:14.023Z,47.47
2018-03-16T09:49:42.257Z,51.70
2018-03-16T09:52:09.747Z,49.03
2018-03-16T09:54:49.863Z,46.97
2018-03-16T09:57:17.352Z,48.27
2018-03-16T09:59:45.598Z,45.67
2018-03-16T10:02:13.059Z,47.27
2018-03-16T10:04:40.550Z,47.60
2018-03-16T10:07:08.787Z,47.97
2018-03-16T10:09:36.260Z,46.00
2018-03-16T10:12:03.807Z,49.37
2018-03-16T10:14:31.218Z,46.80
2018-03-16T10:16:58.679Z,48.97
2018-03-16T10:19:26.163Z,48.27
2018-03-16T10:21:53.637Z,49.53
2018-03-16T10:24:21.138Z,50.17
2018-03-16T10:26:48.611Z,51.07
2018-03-16T10:29:16.076Z,49.03
2018-03-16T10:31:43.547Z,46.90
2018-03-16T10:34:11.006Z,49.60
2018-03-16T10:36:38.472Z,48.40
2018-03-16T10:39:05.960Z,48.07
2018-03-16T10:41:34.187Z,51.87
2018-03-16T10:44:01.655Z,48.00
2018-03-16T10:46:29.134Z,50.23
2018-03-16T10:48:56.664Z,49.17
2018-03-16T10:51:24.865Z,52.03
2018-03-16T10:53:52.347Z,52.50
2018-03-16T10:56:20.599Z,53.57
2018-03-16T10:58:48.204Z,51.20
2018-03-16T11:01:18.687Z,49.80
2018-03-16T11:03:50.396Z,51.47
2018-03-16T11:06:23.470Z,46.93
2018-03-16T11:08:50.938Z,48.27
2018-03-16T11:11:18.411Z,49.50
2018-03-16T11:13:45.885Z,48.10
2018-03-16T11:16:13.340Z,50.40
2018-03-16T11:18:40.805Z,49.73
2018-03-16T11:21:08.287Z,44.30
2018-03-16T11:23:36.519Z,44.60
2018-03-16T11:26:03.997Z,44.37
2018-03-16T11:28:31.468Z,45.60
2018-03-16T11:30:59.702Z,43.87
2018-03-16T11:33:27.178Z,45.47
2018-03-16T11:35:54.672Z,42.23
2018-03-16T11:38:22.131Z,42.03
2018-03-16T11:40:49.602Z,43.90
2018-03-16T11:43:17.095Z,42.20
2018-03-16T11:45:44.569Z,43.77
2018-03-16T11:48:12.038Z,43.37
2018-03-16T11:50:40.293Z,46.13
2018-03-16T11:53:07.760Z,45.90
2018-03-16T11:55:35.980Z,43.83
2018-03-16T11:58:03.470Z,42.53
2018-03-16T12:00:30.954Z,42.00
2018-03-16T12:02:59.178Z,41.40
2018-03-16T12:05:26.659Z,38.23
2018-03-16T12:07:54.123Z,38.70
2018-03-16T12:10:21.577Z,38.47
2018-03-16T12:12:49.084Z,40.60
2018-03-16T12:15:16.554Z,38.07
2018-03-16T12:17:44.018Z,39.90
2018-03-16T12:20:11.549Z,41.97
2018-03-16T12:22:39.429Z,41.40
2018-03-16T12:25:06.897Z,40.37
2018-03-16T12:27:34.391Z,42.40
2018-03-16T12:30:01.863Z,40.37
2018-03-16T12:32:30.090Z,42.40
2018-03-16T12:34:57.579Z,44.67
2018-03-16T12:37:25.064Z,41.03
2018-03-16T12:39:53.307Z,42.10
2018-03-16T12:42:20.766Z,43.50
2018-03-16T12:44:48.231Z,41.87
2018-03-16T12:47:16.665Z,44.40
2018-03-16T12:49:44.131Z,41.00
2018-03-16T12:52:11.619Z,41.33
2018-03-16T12:54:39.082Z,39.23
2018-03-16T12:57:07.314Z,38.17
2018-03-16T12:59:34.797Z,38.87
2018-03-16T13:02:02.262Z,38.53
2018-03-16T13:04:29.726Z,36.10
2018-03-16T13:06:58.002Z,39.27
2018-03-16T13:09:26.258Z,35.23
2018-03-16T13:11:53.734Z,38.93
2018-03-16T13:14:21.980Z,36.70
2018-03-16T13:16:49.470Z,37.83
2018-03-16T13:19:18.653Z,36.87
2018-03-16T13:21:46.111Z,40.07
2018-03-16T13:24:14.343Z,38.20
2018-03-16T13:26:42.200Z,39.33
2018-03-16T13:29:09.678Z,38.47
2018-03-16T13:31:38.720Z,38.73
2018-03-16T13:34:06.947Z,34.27
2018-03-16T13:36:34.428Z,36.10
2018-03-16T13:39:01.899Z,37.20
2018-03-16T13:41:30.216Z,35.70
2018-03-16T13:43:58.456Z,36.80
2018-03-16T13:46:26.683Z,37.40
2018-03-16T13:48:54.164Z,36.93
2018-03-16T13:51:21.646Z,34.07
2018-03-16T13:53:49.875Z,34.53
2018-03-16T13:56:17.542Z,36.47
2018-03-16T13:58:45.018Z,35.50
2018-03-16T14:01:12.482Z,41.93
2018-03-16T14:03:40.730Z,46.10
2018-03-16T14:06:08.205Z,49.13
2018-03-16T14:08:35.672Z,49.47
2018-03-16T14:11:03.918Z,50.33
2018-03-16T14:13:31.827Z,49.60
2018-03-16T14:16:00.098Z,51.77
2018-03-16T14:18:28.375Z,50.00
2018-03-16T14:20:56.652Z,45.87
2018-03-16T14:23:24.893Z,46.37
2018-03-16T14:25:52.379Z,45.30
2018-03-16T14:28:20.611Z,45.43
2018-03-16T14:30:48.092Z,44.37
2018-03-16T14:33:15.584Z,42.80
2018-03-16T14:35:43.047Z,47.60
2018-03-16T14:38:10.510Z,45.73
2018-03-16T14:40:37.996Z,47.60
2018-03-16T14:43:05.520Z,45.30
2018-03-16T14:45:33.014Z,45.00
2018-03-16T14:48:00.466Z,43.00
2018-03-16T14:50:27.931Z,48.77
2018-03-16T14:52:55.424Z,48.43
2018-03-16T14:55:23.653Z,46.43
2018-03-16T14:57:51.124Z,44.87
2018-03-16T15:00:18.621Z,45.40
2018-03-16T15:02:46.108Z,45.23
2018-03-16T15:05:13.614Z,45.40
2018-03-16T15:07:41.079Z,42.60
2018-03-16T15:10:09.339Z,44.87
2018-03-16T15:12:36.791Z,47.10
2018-03-16T15:15:04.410Z,41.20
2018-03-16T15:17:31.914Z,36.80
2018-03-16T15:19:59.407Z,33.53
2018-03-16T15:22:26.866Z,36.93
2018-03-16T15:24:54.348Z,43.40
2018-03-16T15:27:21.827Z,44.27
2018-03-16T15:29:49.322Z,43.80
2018-03-16T15:32:16.792Z,44.63
2018-03-16T15:34:44.250Z,43.20
2018-03-16T15:37:11.730Z,41.50
2018-03-16T15:39:39.195Z,41.57
2018-03-16T15:42:07.587Z,40.17
2018-03-16T15:44:35.075Z,40.47
2018-03-16T15:47:04.837Z,38.03
2018-03-16T15:49:36.103Z,33.43
2018-03-16T15:52:04.427Z,34.40
2018-03-16T15:54:33.636Z,32.63
2018-03-16T15:57:01.363Z,36.10
2018-03-16T15:59:29.600Z,34.77
2018-03-16T16:01:58.031Z,34.33
2018-03-16T16:04:26.272Z,29.97
2018-03-16T16:06:54.668Z,27.00
2018-03-16T16:09:23.835Z,28.60
2018-03-16T16:11:51.336Z,28.33
2018-03-16T16:14:20.564Z,29.47
2018-03-16T16:16:49.507Z,28.37
2018-03-16T16:19:17.758Z,31.07
2018-03-16T16:21:46.134Z,32.60
2018-03-16T16:24:13.652Z,32.60
2018-03-16T16:26:42.320Z,33.93
2018-03-16T16:29:10.538Z,31.50
2018-03-16T16:31:38.035Z,33.67
2018-03-16T16:34:06.268Z,31.43
2018-03-16T16:36:33.746Z,27.43
2018-03-16T16:39:01.872Z,32.57
2018-03-16T16:41:29.346Z,29.67
2018-03-16T16:43:56.819Z,30.77
2018-03-16T16:46:24.311Z,29.60
2018-03-16T16:48:52.600Z,31.63
2018-03-16T16:51:20.243Z,29.33
2018-03-16T16:53:47.706Z,30.60
2018-03-16T16:56:15.954Z,29.83
2018-03-16T16:58:43.463Z,31.57
2018-03-16T17:01:10.932Z,31.43
2018-03-16T17:03:39.247Z,32.40
2018-03-16T17:06:06.750Z,34.30
2018-03-16T17:08:35.064Z,34.40
2018-03-16T17:11:03.047Z,34.53
2018-03-16T17:13:30.742Z,35.30
2018-03-16T17:15:58.210Z,32.50
2018-03-16T17:18:25.679Z,33.13
2018-03-16T17:20:53.187Z,32.73
2018-03-16T17:23:20.654Z,31.97
2018-03-16T17:25:48.567Z,28.53
2018-03-16T17:28:16.070Z,32.30
2018-03-16T17:30:44.004Z,29.90
2018-03-16T17:33:11.511Z,29.77
2018-03-16T17:35:39.904Z,29.43
2018-03-16T17:38:07.405Z,29.03
2018-03-16T17:40:34.855Z,31.87
2018-03-16T17:43:02.340Z,31.90
2018-03-16T17:45:30.042Z,31.20
2018-03-16T17:47:57.540Z,33.20
2018-03-16T17:50:25.069Z,34.50
2018-03-16T17:52:52.565Z,32.60
2018-03-16T17:55:20.084Z,34.97
2018-03-16T17:57:47.515Z,35.97
2018-03-16T18:00:15.764Z,37.27
2018-03-16T18:02:43.246Z,34.80
2018-03-16T18:05:11.486Z,36.83
2018-03-16T18:07:38.978Z,35.53
2018-03-16T18:10:07.635Z,38.30
2018-03-16T18:12:35.110Z,35.77
2018-03-16T18:15:03.367Z,36.43
2018-03-16T18:17:30.840Z,35.27
2018-03-16T18:19:59.059Z,35.30
2018-03-16T18:22:26.559Z,36.83
2018-03-16T18:24:54.790Z,39.07
2018-03-16T18:27:22.266Z,36.33
2018-03-16T18:29:49.739Z,35.47
2018-03-16T18:32:17.474Z,32.60
2018-03-16T18:34:45.167Z,33.30
2018-03-16T18:37:14.180Z,32.00
2018-03-16T18:39:41.622Z,33.87
2018-03-16T18:42:09.132Z,31.47
2018-03-16T18:44:37.371Z,30.80
2018-03-16T18:47:05.626Z,30.67
2018-03-16T18:49:33.106Z,31.60
2018-03-16T18:52:01.341Z,30.63
2018-03-16T18:54:28.806Z,30.57
2018-03-16T18:56:56.299Z,29.27
2018-03-16T18:59:24.533Z,28.83
2018-03-16T19:01:51.995Z,31.27
2018-03-16T19:04:19.491Z,30.50
2018-03-16T19:06:46.976Z,27.00
2018-03-16T19:09:14.445Z,30.40
2018-03-16T19:11:41.935Z,27.80
2018-03-16T19:14:09.412Z,28.50
2018-03-16T19:16:36.894Z,28.90
2018-03-16T19:19:04.405Z,26.80
2018-03-16T19:21:31.880Z,26.90
2018-03-16T19:24:00.119Z,27.83
2018-03-16T19:26:27.587Z,25.03
2018-03-16T19:28:55.818Z,26.63
2018-03-16T19:31:23.302Z,27.17
2018-03-16T19:33:50.781Z,26.23
2018-03-16T19:36:18.273Z,28.67
2018-03-16T19:38:45.754Z,25.70
2018-03-16T19:41:13.222Z,24.97
2018-03-16T19:43:40.687Z,25.67
2018-03-16T19:46:08.192Z,23.73
2018-03-16T19:48:35.723Z,27.33
2018-03-16T19:51:03.158Z,26.37
2018-03-16T19:53:30.639Z,25.77
2018-03-16T19:55:58.897Z,26.30
2018-03-16T19:58:26.378Z,26.97
2018-03-16T20:00:55.210Z,24.90
2018-03-16T20:03:22.662Z,27.17
2018-03-16T20:05:50.172Z,25.43
2018-03-16T20:08:17.627Z,27.13
2018-03-16T20:10:45.111Z,27.23
2018-03-16T20:13:12.615Z,23.07
2018-03-16T20:15:40.091Z,24.60
2018-03-16T20:18:09.072Z,21.67
2018-03-16T20:20:36.557Z,22.00
2018-03-16T20:23:04.807Z,22.63
2018-03-16T20:25:32.263Z,22.87
2018-03-16T20:27:59.756Z,22.77
2018-03-16T20:30:27.238Z,21.53
2018-03-16T20:32:54.724Z,20.87
2018-03-16T20:35:22.407Z,20.00
2018-03-16T20:37:49.888Z,22.07
2018-03-16T20:40:18.126Z,21.10
2018-03-16T20:42:45.800Z,22.00
2018-03-16T20:45:13.259Z,22.20
2018-03-16T20:47:40.739Z,20.27
2018-03-16T20:50:08.275Z,18.73
2018-03-16T20:52:35.741Z,17.52
2018-03-16T20:55:03.983Z,17.97
2018-03-16T20:57:31.658Z,22.47
2018-03-16T20:59:59.129Z,20.57
2018-03-16T21:02:27.359Z,20.60
2018-03-16T21:04:54.882Z,18.40
2018-03-16T21:07:22.459Z,19.80
2018-03-16T21:09:51.145Z,19.17
2018-03-16T21:12:19.580Z,18.67
2018-03-16T21:14:47.866Z,18.43
2018-03-16T21:17:16.107Z,18.57
2018-03-16T21:19:43.595Z,18.60
2018-03-16T21:22:12.706Z,19.60
2018-03-16T21:24:40.186Z,17.97
2018-03-16T21:27:07.691Z,17.30
2018-03-16T21:29:35.187Z,19.20
2018-03-16T21:32:02.655Z,18.13
2018-03-16T21:34:30.630Z,17.53
2018-03-16T21:36:58.083Z,19.03
2018-03-16T21:39:25.580Z,17.27
2018-03-16T21:41:53.206Z,19.00
2018-03-16T21:44:20.669Z,19.37
2018-03-16T21:46:48.147Z,19.30
2018-03-16T21:49:15.647Z,17.87
2018-03-16T21:51:43.871Z,18.17
2018-03-16T21:54:11.358Z,18.00
2018-03-16T21:56:40.715Z,18.43
2018-03-16T21:59:08.186Z,19.23
2018-03-16T22:01:35.664Z,16.03
2018-03-16T22:04:03.945Z,19.50
2018-03-16T22:06:31.408Z,19.90
2018-03-16T22:08:59.690Z,18.30
2018-03-16T22:11:27.279Z,18.23
2018-03-16T22:13:54.835Z,18.70
2018-03-16T22:16:22.326Z,18.00
2018-03-16T22:18:49.798Z,20.03
2018-03-16T22:21:17.279Z,18.90
2018-03-16T22:23:44.847Z,18.05
2018-03-16T22:26:12.369Z,19.73
2018-03-16T22:28:39.852Z,18.40
2018-03-16T22:31:08.108Z,17.47
2018-03-16T22:33:36.433Z,16.90
2018-03-16T22:36:03.895Z,19.40
2018-03-16T22:38:31.377Z,19.83
2018-03-16T22:40:58.842Z,20.70
2018-03-16T22:43:26.339Z,19.77
2018-03-16T22:45:53.827Z,20.00
2018-03-16T22:48:21.311Z,18.80
2018-03-16T22:50:49.018Z,20.10
2018-03-16T22:53:16.503Z,19.52
2018-03-16T22:55:43.962Z,18.77
2018-03-16T22:58:11.599Z,19.27
2018-03-16T23:00:39.054Z,19.30
2018-03-16T23:03:06.632Z,19.48
2018-03-16T23:05:34.106Z,18.00
2018-03-16T23:08:01.593Z,18.50
2018-03-16T23:10:29.832Z,19.42
2018-03-16T23:12:57.326Z,17.30
2018-03-16T23:15:25.632Z,18.65
2018-03-16T23:17:53.107Z,18.25
2018-03-16T23:20:20.599Z,17.87
2018-03-16T23:22:48.059Z,18.75
2018-03-16T23:25:15.549Z,18.00
2018-03-16T23:27:43.129Z,17.70
2018-03-16T23:30:13.120Z,17.25
2018-03-16T23:32:41.355Z,16.73
2018-03-16T23:35:08.834Z,17.27
2018-03-16T23:37:37.307Z,16.37
2018-03-16T23:40:05.543Z,18.52
2018-03-16T23:42:33.023Z,17.02
2018-03-16T23:45:00.528Z,19.37
2018-03-16T23:47:28.011Z,19.48
2018-03-16T23:49:55.477Z,18.83
2018-03-16T23:52:22.962Z,17.35
2018-03-16T23:54:51.195Z,18.37
2018-03-16T23:57:18.659Z,16.90
2018-03-16T23:59:46.154Z,19.55
